createdAt,value
2018-09-12T00:01:01.153Z,11.20
2018-09-12T00:03:29.816Z,12.23
2018-09-12T00:05:57.977Z,12.27
2018-09-12T00:08:26.149Z,14.03
2018-09-12T00:10:54.347Z,16.37
2018-09-12T00:13:22.537Z,13.13
2018-09-12T00:15:50.716Z,13.27
2018-09-12T00:18:19.217Z,12.80
2018-09-12T00:20:47.447Z,12.43
2018-09-12T00:23:16.261Z,13.17
2018-09-12T00:25:44.459Z,12.77
2018-09-12T00:28:12.709Z,13.40
2018-09-12T00:30:40.977Z,13.00
2018-09-12T00:33:09.330Z,12.63
2018-09-12T00:35:37.699Z,16.30
2018-09-12T00:38:05.915Z,12.20
2018-09-12T00:40:34.121Z,11.13
2018-09-12T00:43:02.572Z,11.00
2018-09-12T00:45:30.809Z,12.13
2018-09-12T00:47:59.290Z,11.00
2018-09-12T00:50:27.455Z,12.80
2018-09-12T00:52:55.885Z,10.77
2018-09-12T00:55:24.176Z,11.53
2018-09-12T00:57:52.358Z,12.30
2018-09-12T01:00:20.516Z,13.00
2018-09-12T01:02:48.710Z,12.37
2018-09-12T01:05:16.954Z,12.30
2018-09-12T01:07:45.255Z,11.07
2018-09-12T01:10:13.422Z,10.87
2018-09-12T01:12:41.589Z,13.97
2018-09-12T01:15:09.937Z,12.17
2018-09-12T01:17:38.279Z,11.37
2018-09-12T01:20:06.471Z,12.10
2018-09-12T01:22:34.713Z,13.20
2018-09-12T01:25:02.992Z,12.20
2018-09-12T01:27:31.161Z,13.70
2018-09-12T01:29:59.412Z,13.30
2018-09-12T01:32:27.601Z,12.67
2018-09-12T01:34:56.047Z,14.97
2018-09-12T01:37:24.585Z,13.43
2018-09-12T01:39:52.838Z,13.90
2018-09-12T01:42:21.014Z,14.17
2018-09-12T01:44:49.344Z,13.90
2018-09-12T01:47:17.521Z,13.33
2018-09-12T01:49:46.027Z,12.73
2018-09-12T01:52:14.201Z,13.67
2018-09-12T01:54:42.620Z,14.30
2018-09-12T01:57:10.836Z,13.77
2018-09-12T01:59:38.990Z,14.27
2018-09-12T02:02:07.233Z,14.00
2018-09-12T02:04:35.800Z,13.30
2018-09-12T02:07:03.984Z,13.73
2018-09-12T02:09:32.262Z,13.30
2018-09-12T02:12:00.514Z,13.40
2018-09-12T02:14:28.695Z,14.37
2018-09-12T02:16:56.882Z,15.40
2018-09-12T02:19:25.050Z,13.77
2018-09-12T02:21:53.317Z,13.87
2018-09-12T02:24:21.554Z,15.80
2018-09-12T02:26:49.769Z,15.50
2018-09-12T02:29:17.937Z,16.30
2018-09-12T02:31:46.152Z,18.67
2018-09-12T02:34:14.709Z,17.10
2018-09-12T02:36:42.873Z,18.23
2018-09-12T02:39:11.169Z,17.07
2018-09-12T02:41:39.430Z,16.60
2018-09-12T02:44:07.595Z,19.20
2018-09-12T02:46:35.801Z,18.30
2018-09-12T02:49:04.053Z,17.73
2018-09-12T02:51:32.325Z,18.40
2018-09-12T02:54:00.852Z,16.97
2018-09-12T02:56:29.094Z,18.13
2018-09-12T02:58:57.687Z,18.30
2018-09-12T03:01:25.884Z,22.70
2018-09-12T03:04:10.852Z,18.33
2018-09-12T03:06:39.150Z,17.80
2018-09-12T03:09:08.341Z,19.70
2018-09-12T03:11:36.552Z,17.70
2018-09-12T03:14:04.773Z,18.37
2018-09-12T03:16:32.963Z,18.73
2018-09-12T03:19:01.257Z,16.93
2018-09-12T03:21:29.680Z,16.67
2018-09-12T03:23:57.902Z,15.97
2018-09-12T03:26:26.140Z,18.60
2018-09-12T03:28:54.471Z,16.87
2018-09-12T03:31:22.648Z,20.03
2018-09-12T03:33:50.880Z,21.07
2018-09-12T03:36:19.172Z,20.70
2018-09-12T03:38:47.384Z,20.70
2018-09-12T03:41:15.892Z,18.83
2018-09-12T03:43:44.076Z,18.10
2018-09-12T03:46:12.336Z,20.13
2018-09-12T03:48:40.602Z,20.07
2018-09-12T03:51:08.789Z,18.23
2018-09-12T03:53:37.188Z,18.10
2018-09-12T03:56:05.446Z,19.70
2018-09-12T03:58:34.774Z,23.83
2018-09-12T04:01:02.961Z,19.63
2018-09-12T04:03:31.129Z,19.67
2018-09-12T04:05:59.795Z,20.90
2018-09-12T04:08:28.046Z,19.77
2018-09-12T04:10:56.537Z,19.47
2018-09-12T04:13:24.817Z,23.27
2018-09-12T04:15:53.081Z,29.07
2018-09-12T04:18:21.345Z,30.80
2018-09-12T04:20:49.627Z,35.00
2018-09-12T04:23:17.799Z,49.87
2018-09-12T04:25:45.975Z,30.77
2018-09-12T04:28:14.157Z,20.17
2018-09-12T04:30:42.337Z,19.40
2018-09-12T04:33:10.512Z,20.43
2018-09-12T04:35:38.888Z,21.87
2018-09-12T04:38:07.061Z,20.90
2018-09-12T04:40:35.233Z,23.87
2018-09-12T04:43:03.538Z,18.80
2018-09-12T04:45:31.777Z,21.77
2018-09-12T04:47:59.962Z,21.63
2018-09-12T04:50:28.145Z,22.00
2018-09-12T04:52:56.410Z,23.30
2018-09-12T04:55:24.620Z,24.70
2018-09-12T04:57:52.792Z,23.20
2018-09-12T05:00:20.985Z,23.80
2018-09-12T05:02:49.198Z,21.53
2018-09-12T05:05:17.414Z,23.33
2018-09-12T05:07:45.585Z,23.37
2018-09-12T05:10:13.822Z,22.80
2018-09-12T05:12:42.009Z,27.27
2018-09-12T05:15:10.179Z,23.17
2018-09-12T05:17:38.493Z,23.73
2018-09-12T05:20:06.686Z,26.07
2018-09-12T05:22:34.895Z,28.57
2018-09-12T05:25:03.153Z,25.37
2018-09-12T05:27:31.468Z,24.77
2018-09-12T05:29:59.728Z,29.03
2018-09-12T05:32:27.901Z,24.37
2018-09-12T05:34:56.094Z,20.83
2018-09-12T05:37:24.356Z,22.53
2018-09-12T05:39:52.533Z,24.37
2018-09-12T05:42:20.817Z,22.43
2018-09-12T05:44:49.087Z,20.10
2018-09-12T05:47:17.395Z,30.20
2018-09-12T05:49:45.651Z,22.70
2018-09-12T05:52:13.819Z,21.67
2018-09-12T05:54:42.493Z,26.13
2018-09-12T05:57:10.690Z,21.90
2018-09-12T05:59:38.868Z,25.13
2018-09-12T06:02:07.338Z,19.63
2018-09-12T06:04:35.526Z,20.50
2018-09-12T06:07:03.799Z,19.13
2018-09-12T06:09:31.882Z,21.33
2018-09-12T06:12:00.074Z,18.77
2018-09-12T06:14:28.244Z,18.17
2018-09-12T06:16:56.464Z,18.07
2018-09-12T06:19:24.658Z,16.83
2018-09-12T06:21:52.883Z,16.97
2018-09-12T06:24:21.453Z,17.13
2018-09-12T06:26:49.847Z,16.80
2018-09-12T06:29:18.038Z,18.67
2018-09-12T06:31:46.211Z,17.70
2018-09-12T06:34:14.698Z,17.80
2018-09-12T06:36:42.901Z,17.30
2018-09-12T06:39:12.690Z,17.80
2018-09-12T06:41:40.886Z,15.63
2018-09-12T06:44:09.259Z,16.57
2018-09-12T06:46:37.628Z,17.90
2018-09-12T06:49:06.184Z,19.43
2018-09-12T06:51:34.440Z,18.23
2018-09-12T06:54:02.818Z,18.03
2018-09-12T06:56:31.071Z,16.60
2018-09-12T06:58:59.270Z,17.10
2018-09-12T07:01:27.447Z,15.60
2018-09-12T07:03:55.686Z,17.27
2018-09-12T07:06:24.046Z,17.10
2018-09-12T07:08:52.529Z,17.50
2018-09-12T07:11:20.817Z,19.50
2018-09-12T07:13:49.077Z,18.27
2018-09-12T07:16:17.361Z,17.50
2018-09-12T07:18:45.646Z,17.17
2018-09-12T07:21:13.817Z,17.47
2018-09-12T07:23:42.141Z,16.80
2018-09-12T07:26:10.641Z,17.10
2018-09-12T07:28:38.820Z,18.00
2018-09-12T07:31:07.189Z,15.93
2018-09-12T07:33:35.377Z,16.50
2018-09-12T07:36:03.593Z,17.37
2018-09-12T07:38:31.844Z,14.20
2018-09-12T07:41:00.133Z,15.40
2018-09-12T07:43:29.143Z,16.50
2018-09-12T07:45:57.390Z,14.83
2018-09-12T07:48:25.590Z,15.27
2018-09-12T07:50:53.776Z,18.10
2018-09-12T07:53:22.045Z,15.50
2018-09-12T07:55:50.280Z,16.20
2018-09-12T07:58:18.465Z,14.50
2018-09-12T08:00:46.673Z,13.70
2018-09-12T08:03:14.933Z,20.53
2018-09-12T08:05:43.102Z,13.87
2018-09-12T08:08:11.314Z,15.37
2018-09-12T08:10:40.089Z,17.30
2018-09-12T08:13:08.654Z,16.93
2018-09-12T08:15:36.846Z,13.10
2018-09-12T08:18:05.646Z,14.23
2018-09-12T08:20:34.056Z,13.07
2018-09-12T08:23:02.362Z,13.40
2018-09-12T08:25:30.569Z,12.87
2018-09-12T08:27:58.797Z,14.50
2018-09-12T08:30:27.332Z,14.13
2018-09-12T08:32:55.509Z,15.40
2018-09-12T08:35:24.835Z,14.07
2018-09-12T08:37:52.996Z,14.17
2018-09-12T08:40:21.225Z,15.20
2018-09-12T08:42:49.600Z,15.53
2018-09-12T08:45:17.872Z,12.60
2018-09-12T08:47:46.119Z,13.60
2018-09-12T08:50:14.257Z,10.73
2018-09-12T08:52:42.513Z,12.00
2018-09-12T08:55:10.833Z,10.73
2018-09-12T08:57:38.996Z,14.20
2018-09-12T09:00:07.418Z,10.90
2018-09-12T09:02:35.610Z,10.60
2018-09-12T09:05:03.804Z,12.10
2018-09-12T09:07:32.072Z,12.80
2018-09-12T09:10:00.400Z,10.30
2018-09-12T09:12:28.595Z,12.30
2018-09-12T09:14:56.872Z,11.70
2018-09-12T09:17:25.125Z,15.67
2018-09-12T09:19:53.314Z,19.93
2018-09-12T09:22:21.810Z,10.70
2018-09-12T09:24:50.346Z,11.83
2018-09-12T09:27:18.549Z,10.78
2018-09-12T09:29:46.735Z,17.67
2018-09-12T09:32:15.146Z,13.77
2018-09-12T09:34:43.398Z,12.73
2018-09-12T09:37:11.682Z,11.83
2018-09-12T09:39:39.866Z,12.83
2018-09-12T09:42:08.054Z,11.37
2018-09-12T09:44:36.287Z,11.10
2018-09-12T09:47:04.481Z,13.30
2018-09-12T09:49:32.667Z,11.03
2018-09-12T09:52:01.102Z,11.70
2018-09-12T09:54:29.603Z,11.33
2018-09-12T09:56:57.863Z,10.27
2018-09-12T09:59:26.126Z,10.90
2018-09-12T10:01:59.533Z,13.37
2018-09-12T10:04:33.361Z,12.00
2018-09-12T10:07:06.860Z,11.07
2018-09-12T10:09:35.037Z,10.70
2018-09-12T10:12:04.074Z,11.83
2018-09-12T10:14:32.298Z,11.43
2018-09-12T10:17:00.479Z,10.20
2018-09-12T10:19:28.749Z,11.43
2018-09-12T10:21:57.287Z,10.43
2018-09-12T10:24:25.706Z,11.00
2018-09-12T10:26:53.705Z,9.80
2018-09-12T10:29:21.945Z,11.60
2018-09-12T10:31:50.215Z,10.07
2018-09-12T10:34:18.397Z,12.63
2018-09-12T10:36:46.626Z,9.55
2018-09-12T10:39:14.841Z,9.93
2018-09-12T10:41:43.829Z,10.87
2018-09-12T10:44:12.143Z,9.40
2018-09-12T10:46:40.379Z,10.07
2018-09-12T10:49:08.711Z,8.53
2018-09-12T10:51:36.935Z,7.27
2018-09-12T10:54:05.219Z,6.90
2018-09-12T10:56:33.484Z,9.53
2018-09-12T10:59:01.753Z,7.37
2018-09-12T11:01:29.888Z,7.70
2018-09-12T11:03:58.104Z,5.97
2018-09-12T11:06:26.299Z,10.90
2018-09-12T11:08:54.566Z,6.70
2018-09-12T11:11:22.796Z,5.87
2018-09-12T11:13:50.994Z,5.83
2018-09-12T11:16:19.184Z,5.50
2018-09-12T11:18:47.466Z,6.63
2018-09-12T11:21:15.742Z,5.53
2018-09-12T11:23:43.933Z,7.20
2018-09-12T11:26:12.235Z,7.30
2018-09-12T11:28:40.738Z,6.27
2018-09-12T11:31:08.920Z,7.10
2018-09-12T11:33:37.214Z,6.90
2018-09-12T11:36:05.393Z,6.63
2018-09-12T11:38:33.582Z,5.70
2018-09-12T11:41:02.030Z,6.03
2018-09-12T11:43:30.225Z,5.50
2018-09-12T11:45:58.419Z,6.10
2018-09-12T11:48:26.828Z,8.25
2018-09-12T11:50:55.089Z,6.20
2018-09-12T11:53:23.325Z,6.35
2018-09-12T11:55:51.529Z,6.17
2018-09-12T11:58:19.719Z,5.90
2018-09-12T12:00:47.895Z,7.00
2018-09-12T12:03:16.537Z,6.30
2018-09-12T12:05:45.059Z,6.17
2018-09-12T12:08:13.280Z,6.08
2018-09-12T12:10:41.464Z,6.37
2018-09-12T12:13:09.652Z,6.35
2018-09-12T12:15:37.826Z,5.08
2018-09-12T12:18:06.102Z,5.72
2018-09-12T12:20:34.846Z,5.25
2018-09-12T12:23:03.100Z,5.62
2018-09-12T12:25:31.211Z,5.30
2018-09-12T12:27:59.396Z,5.37
2018-09-12T12:30:27.572Z,5.97
2018-09-12T12:32:55.776Z,5.70
2018-09-12T12:35:24.995Z,5.37
2018-09-12T12:37:53.636Z,6.35
2018-09-12T12:40:22.059Z,5.30
2018-09-12T12:42:50.240Z,5.22
2018-09-12T12:45:18.794Z,5.62
2018-09-12T12:47:47.049Z,5.80
2018-09-12T12:50:15.438Z,6.03
2018-09-12T12:52:43.698Z,4.75
2018-09-12T12:55:11.861Z,5.42
2018-09-12T12:57:40.317Z,5.75
2018-09-12T13:00:08.493Z,5.25
2018-09-12T13:02:36.694Z,4.90
2018-09-12T13:05:05.430Z,5.12
2018-09-12T13:07:33.661Z,5.85
2018-09-12T13:10:01.937Z,5.00
2018-09-12T13:12:30.163Z,5.40
2018-09-12T13:14:58.387Z,5.67
2018-09-12T13:17:26.657Z,4.92
2018-09-12T13:19:54.833Z,5.17
2018-09-12T13:22:23.008Z,5.83
2018-09-12T13:24:51.161Z,10.65
2018-09-12T13:27:19.494Z,5.30
2018-09-12T13:29:47.666Z,5.78
2018-09-12T13:32:15.917Z,5.22
2018-09-12T13:34:44.240Z,6.00
2018-09-12T13:37:12.460Z,5.83
2018-09-12T13:39:40.734Z,5.15
2018-09-12T13:42:09.476Z,4.55
2018-09-12T13:44:37.674Z,5.37
2018-09-12T13:47:05.878Z,5.83
2018-09-12T13:49:34.292Z,5.80
2018-09-12T13:52:02.517Z,5.10
2018-09-12T13:54:30.718Z,5.10
2018-09-12T13:56:59.015Z,4.53
2018-09-12T13:59:27.479Z,5.28
2018-09-12T14:01:55.641Z,4.97
2018-09-12T14:04:24.133Z,5.25
2018-09-12T14:06:52.378Z,5.30
2018-09-12T14:09:20.572Z,5.15
2018-09-12T14:11:48.769Z,4.45
2018-09-12T14:14:17.006Z,5.00
2018-09-12T14:16:45.182Z,6.20
2018-09-12T14:19:13.691Z,4.90
2018-09-12T14:21:41.947Z,6.92
2018-09-12T14:24:10.151Z,5.33
2018-09-12T14:26:38.338Z,5.10
2018-09-12T14:29:06.504Z,5.20
2018-09-12T14:31:34.742Z,4.85
2018-09-12T14:34:03.040Z,44.80
2018-09-12T14:36:31.296Z,5.50
2018-09-12T14:38:59.594Z,4.80
2018-09-12T14:41:27.768Z,4.22
2018-09-12T14:43:55.938Z,4.53
2018-09-12T14:46:24.202Z,4.05
2018-09-12T14:48:52.380Z,3.98
2018-09-12T14:51:20.874Z,5.97
2018-09-12T14:53:49.130Z,4.22
2018-09-12T14:56:17.329Z,3.90
2018-09-12T14:58:45.520Z,3.90
2018-09-12T15:01:13.693Z,3.80
2018-09-12T15:03:41.893Z,4.40
2018-09-12T15:06:10.054Z,4.67
2018-09-12T15:08:38.225Z,3.90
2018-09-12T15:11:06.741Z,4.87
2018-09-12T15:13:34.970Z,6.17
2018-09-12T15:16:03.207Z,4.47
2018-09-12T15:18:31.424Z,7.40
2018-09-12T15:20:59.623Z,4.53
2018-09-12T15:23:27.808Z,3.97
2018-09-12T15:25:56.006Z,3.93
2018-09-12T15:28:24.190Z,3.87
2018-09-12T15:30:52.454Z,5.37
2018-09-12T15:33:20.738Z,4.17
2018-09-12T15:35:48.922Z,4.43
2018-09-12T15:38:17.110Z,4.77
2018-09-12T15:40:47.276Z,4.93
2018-09-12T15:43:15.547Z,6.00
2018-09-12T15:45:43.861Z,4.30
2018-09-12T15:48:12.057Z,4.23
2018-09-12T15:50:40.253Z,4.37
2018-09-12T15:53:08.773Z,4.10
2018-09-12T15:55:37.073Z,13.73
2018-09-12T15:58:05.700Z,5.70
2018-09-12T16:00:33.845Z,3.90
2018-09-12T16:03:02.383Z,6.20
2018-09-12T16:05:30.567Z,3.93
2018-09-12T16:07:58.944Z,8.20
2018-09-12T16:10:27.205Z,4.87
2018-09-12T16:12:55.384Z,3.80
2018-09-12T16:15:23.679Z,5.53
2018-09-12T16:17:51.794Z,4.90
2018-09-12T16:20:20.019Z,6.47
2018-09-12T16:22:48.523Z,4.80
2018-09-12T16:25:16.723Z,4.43
2018-09-12T16:27:44.907Z,4.50
2018-09-12T16:30:13.230Z,6.60
2018-09-12T16:32:41.540Z,5.37
2018-09-12T16:35:10.575Z,5.80
2018-09-12T16:37:38.822Z,4.83
2018-09-12T16:40:07.096Z,4.50
2018-09-12T16:42:35.329Z,3.50
2018-09-12T16:45:03.739Z,4.70
2018-09-12T16:47:31.932Z,3.47
2018-09-12T16:50:00.142Z,7.10
2018-09-12T16:52:28.648Z,5.63
2018-09-12T16:54:56.918Z,5.20
2018-09-12T16:57:25.174Z,4.10
2018-09-12T16:59:53.678Z,3.90
2018-09-12T17:02:21.915Z,5.77
2018-09-12T17:04:50.078Z,4.40
2018-09-12T17:07:18.277Z,5.20
2018-09-12T17:09:46.578Z,4.80
2018-09-12T17:12:14.853Z,5.37
2018-09-12T17:14:43.117Z,16.93
2018-09-12T17:17:11.434Z,73.57
2018-09-12T17:19:39.615Z,19.63
2018-09-12T17:22:07.874Z,5.23
2018-09-12T17:24:36.097Z,6.50
2018-09-12T17:27:04.308Z,5.20
2018-09-12T17:29:32.749Z,5.83
2018-09-12T17:32:00.961Z,5.50
2018-09-12T17:34:29.135Z,4.20
2018-09-12T17:36:57.397Z,7.80
2018-09-12T17:39:26.357Z,13.73
2018-09-12T17:41:54.536Z,4.83
2018-09-12T17:44:22.781Z,8.10
2018-09-12T17:46:51.049Z,6.33
2018-09-12T17:49:19.213Z,5.80
2018-09-12T17:51:47.480Z,5.87
2018-09-12T17:54:15.872Z,5.03
2018-09-12T17:56:44.074Z,5.37
2018-09-12T17:59:12.259Z,5.17
2018-09-12T18:01:40.460Z,4.93
2018-09-12T18:04:08.959Z,7.70
2018-09-12T18:06:37.395Z,59.37
2018-09-12T18:09:07.864Z,25.63
2018-09-12T18:11:36.135Z,13.10
2018-09-12T18:14:04.286Z,7.90
2018-09-12T18:16:32.598Z,7.47
2018-09-12T18:19:00.772Z,9.17
2018-09-12T18:21:29.080Z,17.80
2018-09-12T18:23:57.320Z,13.73
2018-09-12T18:26:25.526Z,12.83
2018-09-12T18:28:54.176Z,9.23
2018-09-12T18:31:22.464Z,9.40
2018-09-12T18:33:51.092Z,7.30
2018-09-12T18:36:19.258Z,6.37
2018-09-12T18:38:47.445Z,7.80
2018-09-12T18:41:15.653Z,8.43
2018-09-12T18:43:43.869Z,8.43
2018-09-12T18:46:13.517Z,51.80
2018-09-12T18:48:42.893Z,40.00
2018-09-12T18:51:12.089Z,17.83
2018-09-12T18:53:41.915Z,12.73
2018-09-12T18:56:17.524Z,9.93
2018-09-12T18:58:47.325Z,6.67
2018-09-12T19:01:16.440Z,9.63
2018-09-12T19:03:45.977Z,8.10
2018-09-12T19:06:15.168Z,30.27
2018-09-12T19:08:44.898Z,26.80
2018-09-12T19:11:14.076Z,40.50
2018-09-12T19:13:44.068Z,20.67
2018-09-12T19:16:13.162Z,13.00
2018-09-12T19:18:42.037Z,9.50
2018-09-12T19:21:11.107Z,5.93
2018-09-12T19:23:40.393Z,12.73
2018-09-12T19:26:09.406Z,8.97
2018-09-12T19:28:38.568Z,6.67
2018-09-12T19:31:07.693Z,6.67
2018-09-12T19:33:37.268Z,14.10
2018-09-12T19:36:06.372Z,32.73
2018-09-12T19:38:35.503Z,13.57
2018-09-12T19:41:04.287Z,10.70
2018-09-12T19:43:33.159Z,8.70
2018-09-12T19:46:01.403Z,9.10
2018-09-12T19:48:30.541Z,8.17
2018-09-12T19:50:59.622Z,7.17
2018-09-12T19:53:28.694Z,9.93
2018-09-12T19:55:57.455Z,7.60
2018-09-12T19:58:26.343Z,10.27
2018-09-12T20:00:55.432Z,7.53
2018-09-12T20:03:24.560Z,8.33
2018-09-12T20:05:53.624Z,9.77
2018-09-12T20:08:23.648Z,10.37
2018-09-12T20:10:52.480Z,11.03
2018-09-12T20:13:20.804Z,10.73
2018-09-12T20:15:49.322Z,9.17
2018-09-12T20:18:17.555Z,10.67
2018-09-12T20:20:46.342Z,12.10
2018-09-12T20:23:14.614Z,8.37
2018-09-12T20:25:43.214Z,8.23
2018-09-12T20:28:11.426Z,8.60
2018-09-12T20:30:39.646Z,9.17
2018-09-12T20:33:07.990Z,9.13
2018-09-12T20:35:36.215Z,9.10
2018-09-12T20:38:05.343Z,20.33
2018-09-12T20:40:33.581Z,15.77
2018-09-12T20:43:01.805Z,10.70
2018-09-12T20:45:30.074Z,7.87
2018-09-12T20:47:58.289Z,8.50
2018-09-12T20:50:26.541Z,11.57
2018-09-12T20:52:54.993Z,18.33
2018-09-12T20:55:23.536Z,14.93
2018-09-12T20:57:51.839Z,12.27
2018-09-12T21:00:20.174Z,11.63
2018-09-12T21:02:48.529Z,10.00
2018-09-12T21:05:16.621Z,13.80
2018-09-12T21:07:44.847Z,8.68
2018-09-12T21:10:13.064Z,14.20
2018-09-12T21:12:41.650Z,14.20
2018-09-12T21:15:09.842Z,13.10
2018-09-12T21:17:38.032Z,11.93
2018-09-12T21:20:06.266Z,11.43
2018-09-12T21:22:34.542Z,11.47
2018-09-12T21:25:02.862Z,14.47
2018-09-12T21:27:31.616Z,9.80
2018-09-12T21:29:59.859Z,10.60
2018-09-12T21:32:28.200Z,10.10
2018-09-12T21:34:56.407Z,11.00
2018-09-12T21:37:24.922Z,9.53
2018-09-12T21:39:53.093Z,9.60
2018-09-12T21:42:21.357Z,12.00
2018-09-12T21:44:49.539Z,10.00
2018-09-12T21:47:17.777Z,12.30
2018-09-12T21:49:47.049Z,12.80
2018-09-12T21:52:15.254Z,10.83
2018-09-12T21:54:43.417Z,12.03
2018-09-12T21:57:11.874Z,12.10
2018-09-12T21:59:40.137Z,15.10
2018-09-12T22:02:08.316Z,16.83
2018-09-12T22:04:36.493Z,11.10
2018-09-12T22:07:05.261Z,11.73
2018-09-12T22:09:33.517Z,10.57
2018-09-12T22:12:01.778Z,12.70
2018-09-12T22:14:30.272Z,11.10
2018-09-12T22:16:58.822Z,11.17
2018-09-12T22:19:27.028Z,10.80
2018-09-12T22:21:55.664Z,12.80
2018-09-12T22:24:23.889Z,14.07
2018-09-12T22:26:52.073Z,11.37
2018-09-12T22:29:20.350Z,11.60
2018-09-12T22:31:48.532Z,12.40
2018-09-12T22:34:17.012Z,13.10
2018-09-12T22:36:45.382Z,11.57
2018-09-12T22:39:13.649Z,13.67
2018-09-12T22:41:41.889Z,11.97
2018-09-12T22:44:10.071Z,10.87
2018-09-12T22:46:38.249Z,14.23
2018-09-12T22:49:06.565Z,12.87
2018-09-12T22:51:34.765Z,11.17
2018-09-12T22:54:03.038Z,15.00
2018-09-12T22:56:31.173Z,15.77
2018-09-12T22:58:59.471Z,10.30
2018-09-12T23:01:27.722Z,13.10
2018-09-12T23:03:55.985Z,12.00
2018-09-12T23:06:24.261Z,10.10
2018-09-12T23:08:52.443Z,10.13
2018-09-12T23:11:20.624Z,11.17
2018-09-12T23:13:48.996Z,10.87
2018-09-12T23:16:17.257Z,11.77
2018-09-12T23:18:45.455Z,11.77
2018-09-12T23:21:13.641Z,11.33
2018-09-12T23:23:41.884Z,11.50
2018-09-12T23:26:10.053Z,10.70
2018-09-12T23:28:38.240Z,10.53
2018-09-12T23:31:06.440Z,11.97
2018-09-12T23:33:34.612Z,11.27
2018-09-12T23:36:02.877Z,11.17
2018-09-12T23:38:31.142Z,9.57
2018-09-12T23:40:59.310Z,9.93
2018-09-12T23:43:27.798Z,9.90
2018-09-12T23:45:56.023Z,10.43
2018-09-12T23:48:24.178Z,11.80
2018-09-12T23:50:52.383Z,14.60
2018-09-12T23:53:20.598Z,11.40
2018-09-12T23:55:48.794Z,11.08
2018-09-12T23:58:23.395Z,13.47
